Home > Products > Valid Products > TAF

000
FTUS44 KLIX 310524
TAFMSY
TAF
KMSY 310524Z 3106/0106 32004KT P6SM FEW015 BKN150 BKN250
     FM311800 01006KT P6SM VCTS SCT035CB BKN250
     FM312300 04006KT P6SM SCT090 BKN250=



000
FTUS44 KLIX 310524
TAFMSY
TAF
KMSY 310524Z 3106/0106 32004KT P6SM FEW015 BKN150 BKN250
     FM311800 01006KT P6SM VCTS SCT035CB BKN250
     FM312300 04006KT P6SM SCT090 BKN250=



000
FTUS44 KLIX 310524
TAFMCB
TAF
KMCB 310524Z 3106/0106 35006KT P6SM SKC
     FM312000 02008KT P6SM FEW250
     FM010200 02004KT P6SM FEW250=



000
FTUS44 KLIX 310524
TAFNEW
TAF
KNEW 310524Z 3106/0106 33009KT P6SM SKC
     FM311200 02009KT P6SM FEW035 SCT250
     FM311800 04006KT P6SM VCTS SCT035CB
     FM010000 10006KT P6SM FEW060 SCT250=



000
FTUS44 KLIX 310524
TAFNEW
TAF
KNEW 310524Z 3106/0106 33009KT P6SM SKC
     FM311200 02009KT P6SM FEW035 SCT250
     FM311800 04006KT P6SM VCTS SCT035CB
     FM010000 10006KT P6SM FEW060 SCT250=



000
FTUS44 KLIX 310524
TAFGPT
TAF
KGPT 310524Z 3106/0106 00000KT P6SM SKC
     FM311200 01006KT P6SM FEW040 SCT250
     FM311800 05006KT P6SM VCTS SCT040CB
     FM312300 11004KT P6SM FEW090 SCT250=



000
FTUS44 KLIX 310524
TAFMCB
TAF
KMCB 310524Z 3106/0106 35006KT P6SM SKC
     FM312000 02008KT P6SM FEW250
     FM010200 02004KT P6SM FEW250=



000
FTUS44 KLIX 310524
TAFGPT
TAF
KGPT 310524Z 3106/0106 00000KT P6SM SKC
     FM311200 01006KT P6SM FEW040 SCT250
     FM311800 05006KT P6SM VCTS SCT040CB
     FM312300 11004KT P6SM FEW090 SCT250=



000
FTUS44 KLIX 310524
TAFBTR
TAF
KBTR 310524Z 3106/0106 29003KT P6SM FEW060
     FM312000 02007KT P6SM FEW250
     FM010100 VRB03KT P6SM FEW250=



000
FTUS44 KLIX 310524
TAFBTR
TAF
KBTR 310524Z 3106/0106 29003KT P6SM FEW060
     FM312000 02007KT P6SM FEW250
     FM010100 VRB03KT P6SM FEW250=



000
FTUS44 KLIX 310524
TAFNEW
TAF
KNEW 310524Z 3106/0106 33009KT P6SM SKC
     FM311200 02009KT P6SM FEW035 SCT250
     FM311800 04006KT P6SM VCTS SCT035CB
     FM010000 10006KT P6SM FEW060 SCT250=



000
FTUS44 KLIX 310524
TAFNEW
TAF
KNEW 310524Z 3106/0106 33009KT P6SM SKC
     FM311200 02009KT P6SM FEW035 SCT250
     FM311800 04006KT P6SM VCTS SCT035CB
     FM010000 10006KT P6SM FEW060 SCT250=



000
FTUS44 KLIX 310057 AAA
TAFGPT
TAF AMD
KGPT 310057Z 3101/3124 VRB05KT P6SM VCTS SCT040CB BKN150
      TEMPO 3101/3102 07020G30KT 2SM TSRA SCT020 BKN035CB
     FM310300 36004KT P6SM BKN250
     FM311500 02008KT P6SM VCTS SCT040CB=



000
FTUS44 KLIX 310002 AAA
TAFNEW
TAF AMD
KNEW 310002Z 3100/3124 33010KT P6SM VCTS SCT040CB BKN250
     FM310300 35009KT P6SM BKN200
     FM311500 02009KT P6SM VCTS SCT040CB=



000
FTUS44 KLIX 310002 AAA
TAFNEW
TAF AMD
KNEW 310002Z 3100/3124 33010KT P6SM VCTS SCT040CB BKN250
     FM310300 35009KT P6SM BKN200
     FM311500 02009KT P6SM VCTS SCT040CB=



000
FTUS44 KLIX 310002 AAA
TAFNEW
TAF AMD
KNEW 310002Z 3100/3124 33010KT P6SM VCTS SCT040CB BKN250
     FM310300 35009KT P6SM BKN200
     FM311500 02009KT P6SM VCTS SCT040CB=



000
FTUS44 KLIX 310002 AAA
TAFNEW
TAF AMD
KNEW 310002Z 3100/3124 33010KT P6SM VCTS SCT040CB BKN250
     FM310300 35009KT P6SM BKN200
     FM311500 02009KT P6SM VCTS SCT040CB=



000
FTUS44 KLIX 302329
TAFMSY
TAF
KMSY 302329Z 3100/3124 34006KT P6SM VCTS SCT040CB BKN250
     FM310200 34005KT P6SM BKN250
     FM311500 01010KT P6SM VCTS SCT040CB
     FM312300 07005KT P6SM SCT250=



000
FTUS44 KLIX 302329
TAFNEW
TAF
KNEW 302329Z 3100/3124 36010KT P6SM VCTS SCT040CB BKN250
     FM310300 35009KT P6SM BKN200
     FM311500 02009KT P6SM VCTS SCT040CB=



000
FTUS44 KLIX 302329
TAFBTR
TAF
KBTR 302329Z 3100/3124 VRB04KT P6SM VCTS SCT050CB BKN200
     FM310200 VRB04KT P6SM SCT040 BKN200
     FM311200 02004KT P6SM FEW250
     FM311600 02005KT P6SM VCTS SCT040CB=



000
FTUS44 KLIX 302329
TAFMCB
TAF
KMCB 302329Z 3100/3124 VRB03KT P6SM VCTS SCT040CB BKN250
     FM310200 VRB03KT P6SM BKN250
     FM311500 02005KT P6SM SCT040=



000
FTUS44 KLIX 302329
TAFGPT
TAF
KGPT 302329Z 3100/3124 VRB05KT P6SM VCTS SCT040CB BKN150
     FM310300 36004KT P6SM BKN250
     FM311500 02008KT P6SM VCTS SCT040CB=



000
FTUS44 KLIX 302329
TAFNEW
TAF
KNEW 302329Z 3100/3124 36010KT P6SM VCTS SCT040CB BKN250
     FM310300 35009KT P6SM BKN200
     FM311500 02009KT P6SM VCTS SCT040CB=



000
FTUS44 KLIX 302329
TAFMSY
TAF
KMSY 302329Z 3100/3124 34006KT P6SM VCTS SCT040CB BKN250
     FM310200 34005KT P6SM BKN250
     FM311500 01010KT P6SM VCTS SCT040CB
     FM312300 07005KT P6SM SCT250=



000
FTUS44 KLIX 302329
TAFGPT
TAF
KGPT 302329Z 3100/3124 VRB05KT P6SM VCTS SCT040CB BKN150
     FM310300 36004KT P6SM BKN250
     FM311500 02008KT P6SM VCTS SCT040CB=



000
FTUS44 KLIX 302329
TAFMCB
TAF
KMCB 302329Z 3100/3124 VRB03KT P6SM VCTS SCT040CB BKN250
     FM310200 VRB03KT P6SM BKN250
     FM311500 02005KT P6SM SCT040=



000
FTUS44 KLIX 302329
TAFBTR
TAF
KBTR 302329Z 3100/3124 VRB04KT P6SM VCTS SCT050CB BKN200
     FM310200 VRB04KT P6SM SCT040 BKN200
     FM311200 02004KT P6SM FEW250
     FM311600 02005KT P6SM VCTS SCT040CB=



000
FTUS44 KLIX 302329
TAFNEW
TAF
KNEW 302329Z 3100/3124 36010KT P6SM VCTS SCT040CB BKN250
     FM310300 35009KT P6SM BKN200
     FM311500 02009KT P6SM VCTS SCT040CB=



000
FTUS44 KLIX 302329
TAFNEW
TAF
KNEW 302329Z 3100/3124 36010KT P6SM VCTS SCT040CB BKN250
     FM310300 35009KT P6SM BKN200
     FM311500 02009KT P6SM VCTS SCT040CB=



000
FTUS44 KLIX 301731
TAFNEW
TAF
KNEW 301731Z 3018/3118 36008KT P6SM SCT035 BKN250
     FM302100 32007KT P6SM SCT040 BKN250
      TEMPO 3021/3101 VRB15G25KT 1SM TSRA BR BKN020CB
     FM310200 29008KT P6SM SCT040 SCT250=



000
FTUS44 KLIX 301731
TAFMCB
TAF
KMCB 301731Z 3018/3118 01005KT P6SM SCT035
     FM301900 02005KT P6SM VCTS SCT040CB BKN250
     FM310200 35004KT P6SM SCT040 SCT250=



000
FTUS44 KLIX 301731
TAFBTR
TAF
KBTR 301731Z 3018/3118 01005KT P6SM SCT040 BKN250
      TEMPO 3021/3101 VRB15G25KT 1SM TSRA BR BKN020CB
     FM310200 35004KT P6SM SCT040 SCT250=



000
FTUS44 KLIX 301731
TAFGPT
TAF
KGPT 301731Z 3018/3118 35007KT P6SM SCT035
     FM302000 33005KT P6SM VCTS SCT035CB BKN250
      TEMPO 3022/3102 VRB15G25KT 1SM TSRA BR BKN020CB
     FM310200 VRB05KT P6SM FEW060 SCT250=



000
FTUS44 KLIX 301731
TAFGPT
TAF
KGPT 301731Z 3018/3118 35007KT P6SM SCT035
     FM302000 33005KT P6SM VCTS SCT035CB BKN250
      TEMPO 3022/3102 VRB15G25KT 1SM TSRA BR BKN020CB
     FM310200 VRB05KT P6SM FEW060 SCT250=



000
FTUS44 KLIX 301731
TAFMSY
TAF
KMSY 301731Z 3018/3118 29004KT P6SM SKC
     FM302100 33006KT P6SM VCTS SCT040CB BKN250
      TEMPO 3021/3101 VRB15G25KT 1SM TSRA BR BKN020CB
     FM310200 35004KT P6SM SCT040 SCT250=



000
FTUS44 KLIX 301731
TAFNEW
TAF
KNEW 301731Z 3018/3118 36008KT P6SM SCT035 BKN250
     FM302100 32007KT P6SM SCT040 BKN250
      TEMPO 3021/3101 VRB15G25KT 1SM TSRA BR BKN020CB
     FM310200 29008KT P6SM SCT040 SCT250=



000
FTUS44 KLIX 301731
TAFMSY
TAF
KMSY 301731Z 3018/3118 29004KT P6SM SKC
     FM302100 33006KT P6SM VCTS SCT040CB BKN250
      TEMPO 3021/3101 VRB15G25KT 1SM TSRA BR BKN020CB
     FM310200 35004KT P6SM SCT040 SCT250=



000
FTUS44 KLIX 301731
TAFBTR
TAF
KBTR 301731Z 3018/3118 01005KT P6SM SCT040 BKN250
      TEMPO 3021/3101 VRB15G25KT 1SM TSRA BR BKN020CB
     FM310200 35004KT P6SM SCT040 SCT250=



000
FTUS44 KLIX 301731
TAFNEW
TAF
KNEW 301731Z 3018/3118 36008KT P6SM SCT035 BKN250
     FM302100 32007KT P6SM SCT040 BKN250
      TEMPO 3021/3101 VRB15G25KT 1SM TSRA BR BKN020CB
     FM310200 29008KT P6SM SCT040 SCT250=



000
FTUS44 KLIX 301140
TAFMSY
TAF
KMSY 301140Z 3012/3112 29004KT P6SM SKC
     FM301900 33006KT P6SM VCTS SCT040CB BKN250 PROB30 3021/3102
      VRB15G25KT 1SM TSRA BR BKN020CB
     FM310200 35004KT P6SM SCT040 SCT250=



000
FTUS44 KLIX 301140
TAFMCB
TAF
KMCB 301140Z 3012/3112 33003KT P6SM SKC
     FM301800 02005KT P6SM VCTS SCT040CB BKN250
     FM310200 35004KT P6SM SCT040 SCT250=



000
FTUS44 KLIX 301140
TAFBTR
TAF
KBTR 301140Z 3012/3112 00000KT P6SM SKC
     FM301900 36005KT P6SM SCT040 BKN250
      TEMPO 3021/3101 VRB15G25KT 1SM TSRA BR BKN020CB
     FM310200 35004KT P6SM SCT040 SCT250=



000
FTUS44 KLIX 301140
TAFNEW
TAF
KNEW 301140Z 3012/3112 32010KT P6SM FEW030 BKN250
     FM301600 35006KT P6SM SCT035 BKN090
     FM301900 29007KT P6SM SCT040 BKN250 PROB30 3021/3102 VRB15G25KT
      1SM TSRA BR BKN020CB=



000
FTUS44 KLIX 301140
TAFGPT
TAF
KGPT 301140Z 3012/3112 30003KT P6SM SKC
     FM301800 33005KT P6SM VCTS SCT035CB BKN250 PROB30 3022/3102
      VRB15G25KT 1SM TSRA BR BKN020CB=



000
FTUS44 KLIX 301140
TAFNEW
TAF
KNEW 301140Z 3012/3112 32010KT P6SM FEW030 BKN250
     FM301600 35006KT P6SM SCT035 BKN090
     FM301900 29007KT P6SM SCT040 BKN250 PROB30 3021/3102 VRB15G25KT
      1SM TSRA BR BKN020CB=



000
FTUS44 KLIX 301140
TAFNEW
TAF
KNEW 301140Z 3012/3112 32010KT P6SM FEW030 BKN250
     FM301600 35006KT P6SM SCT035 BKN090
     FM301900 29007KT P6SM SCT040 BKN250 PROB30 3021/3102 VRB15G25KT
      1SM TSRA BR BKN020CB=



000
FTUS44 KLIX 300523
TAFNEW
TAF
KNEW 300523Z 3006/3106 25008KT P6SM BKN200
     FM301200 32010KT P6SM FEW030 BKN250
     FM301600 35006KT P6SM VCSH SCT035 BKN090
     FM301900 29007KT P6SM VCTS SCT040CB BKN250=



000
FTUS44 KLIX 300523
TAFMCB
TAF
KMCB 300523Z 3006/3106 VRB03KT P6SM BKN250
     FM301200 VRB03KT P6SM FEW030 BKN250
     FM301800 02005KT P6SM VCTS SCT040CB BKN250=



000
FTUS44 KLIX 300523
TAFBTR
TAF
KBTR 300523Z 3006/3106 VRB04KT P6SM BKN250
     FM301200 30004KT P6SM FEW030 BKN250
     FM301900 36005KT P6SM VCTS SCT040CB BKN250=



000
FTUS44 KLIX 300523
TAFGPT
TAF
KGPT 300523Z 3006/3106 28005KT P6SM BKN250
     FM301200 32006KT P6SM FEW030 BKN250
     FM301800 33005KT P6SM VCTS SCT035CB BKN250=



000
FTUS44 KLIX 300523
TAFMSY
TAF
KMSY 300523Z 3006/3106 35004KT P6SM BKN250
     FM301200 32007KT P6SM FEW030 BKN250
     FM301900 33006KT P6SM VCTS SCT040CB BKN250=



000
FTUS44 KLIX 300523
TAFNEW
TAF
KNEW 300523Z 3006/3106 25008KT P6SM BKN200
     FM301200 32010KT P6SM FEW030 BKN250
     FM301600 35006KT P6SM VCSH SCT035 BKN090
     FM301900 29007KT P6SM VCTS SCT040CB BKN250=



000
FTUS44 KLIX 300523
TAFBTR
TAF
KBTR 300523Z 3006/3106 VRB04KT P6SM BKN250
     FM301200 30004KT P6SM FEW030 BKN250
     FM301900 36005KT P6SM VCTS SCT040CB BKN250=



000
FTUS44 KLIX 300523
TAFMCB
TAF
KMCB 300523Z 3006/3106 VRB03KT P6SM BKN250
     FM301200 VRB03KT P6SM FEW030 BKN250
     FM301800 02005KT P6SM VCTS SCT040CB BKN250=



000
FTUS44 KLIX 300523
TAFGPT
TAF
KGPT 300523Z 3006/3106 28005KT P6SM BKN250
     FM301200 32006KT P6SM FEW030 BKN250
     FM301800 33005KT P6SM VCTS SCT035CB BKN250=



000
FTUS44 KLIX 300523
TAFMSY
TAF
KMSY 300523Z 3006/3106 35004KT P6SM BKN250
     FM301200 32007KT P6SM FEW030 BKN250
     FM301900 33006KT P6SM VCTS SCT040CB BKN250=



000
FTUS44 KLIX 300523
TAFNEW
TAF
KNEW 300523Z 3006/3106 25008KT P6SM BKN200
     FM301200 32010KT P6SM FEW030 BKN250
     FM301600 35006KT P6SM VCSH SCT035 BKN090
     FM301900 29007KT P6SM VCTS SCT040CB BKN250=



000
FTUS44 KLIX 300523
TAFNEW
TAF
KNEW 300523Z 3006/3106 25008KT P6SM BKN200
     FM301200 32010KT P6SM FEW030 BKN250
     FM301600 35006KT P6SM VCSH SCT035 BKN090
     FM301900 29007KT P6SM VCTS SCT040CB BKN250=



000
FTUS44 KLIX 300314 AAA
TAFBTR
TAF AMD
KBTR 300314Z 3003/3024 09006KT P6SM VCTS SCT030CB BKN070
      TEMPO 3003/3005 VRB12G20KT 2SM TSRA BKN030CB
     FM300500 VRB03KT P6SM FEW050 BKN250
     FM301430 35008KT P6SM FEW080 SCT190=



000
FTUS44 KLIX 300314 AAA
TAFBTR
TAF AMD
KBTR 300314Z 3003/3024 09006KT P6SM VCTS SCT030CB BKN070
      TEMPO 3003/3005 VRB12G20KT 2SM TSRA BKN030CB
     FM300500 VRB03KT P6SM FEW050 BKN250
     FM301430 35008KT P6SM FEW080 SCT190=



000
FTUS44 KLIX 300039 AAA
TAFGPT
TAF AMD
KGPT 300039Z 3001/3024 VRB06KT P6SM VCTS FEW030CB BKN040
      TEMPO 3001/3002 VRB15G20KT 5SM -TSRA BKN030CB
     FM300200 VRB04KT P6SM SCT050 BKN250
     FM300900 31009KT P6SM SCT150=



000
FTUS44 KLIX 300039 AAB
TAFMCB
TAF AMD
KMCB 300039Z 3001/3024 04008KT P6SM VCTS FEW030CB BKN040
      TEMPO 3001/3002 VRB12G21KT 5SM TSRA BKN030CB
     FM300200 VRB03KT P6SM FEW050 SCT250
     FM301500 35006KT P6SM SCT050=



000
FTUS44 KLIX 300025 AAA
TAFMCB
TAF AMD
KMCB 300025Z 3000/3024 04008KT P6SM SKC
      TEMPO 3000/3002 VRB12G21KT 5SM TSRA BKN030CB
     FM300200 VRB03KT P6SM FEW050 SCT250
     FM301500 35006KT P6SM SCT050=



000
FTUS44 KLIX 292341
TAFBTR
TAF
KBTR 292341Z 3000/3024 06007KT P6SM FEW040
     FM300100 VRB03KT P6SM FEW060 BKN250
     FM301430 35008KT P6SM FEW080 SCT190=



000
FTUS44 KLIX 292341
TAFGPT
TAF
KGPT 292341Z 3000/3024 VRB06KT P6SM FEW040
     FM300200 VRB04KT P6SM SCT050 BKN250
     FM300900 31009KT P6SM SCT150=



000
FTUS44 KLIX 292341
TAFNEW
TAF
KNEW 292341Z 3000/3024 35009KT P6SM FEW050 SCT250
      TEMPO 3000/3001 VRB22G40KT 2SM TSRA BKN030CB
     FM300200 VRB06KT P6SM SCT060 BKN250
     FM300300 27009KT P6SM SCT050 SCT250
     FM301300 31009KT P6SM FEW100 BKN200=



000
FTUS44 KLIX 292341
TAFMCB
TAF
KMCB 292341Z 3000/3024 04008KT P6SM SKC
     FM300100 VRB03KT P6SM FEW050 SCT250
     FM301500 35006KT P6SM SCT050=



000
FTUS44 KLIX 292341
TAFMSY
TAF
KMSY 292341Z 3000/3024 02007G14KT P6SM FEW030 BKN250
      TEMPO 3000/3001 VRB12G21KT 5SM TSRA BKN030CB
     FM300200 VRB06KT P6SM SCT060 BKN250
     FM300300 27009KT P6SM SCT050 SCT250
     FM301300 31009KT P6SM FEW100 BKN200=



000
FTUS44 KLIX 292341
TAFNEW
TAF
KNEW 292341Z 3000/3024 35009KT P6SM FEW050 SCT250
      TEMPO 3000/3001 VRB22G40KT 2SM TSRA BKN030CB
     FM300200 VRB06KT P6SM SCT060 BKN250
     FM300300 27009KT P6SM SCT050 SCT250
     FM301300 31009KT P6SM FEW100 BKN200=



000
FTUS44 KLIX 291740
TAFBTR
TAF
KBTR 291740Z 2918/3018 06007KT P6SM FEW040
     FM300100 VRB03KT P6SM FEW060 BKN250
     FM301430 35008KT P6SM FEW080 SCT190=



000
FTUS44 KLIX 291740
TAFNEW
TAF
KNEW 291740Z 2918/3018 35009KT P6SM FEW050 SCT250
      TEMPO 2921/2924 2SM TSRA BKN030CB
     FM300000 VRB06KT P6SM SCT060 BKN250
     FM300300 27009KT P6SM SCT050 SCT250
     FM301300 31009KT P6SM FEW100 BKN200=



000
FTUS44 KLIX 291740
TAFNEW
TAF
KNEW 291740Z 2918/3018 35009KT P6SM FEW050 SCT250
      TEMPO 2921/2924 2SM TSRA BKN030CB
     FM300000 VRB06KT P6SM SCT060 BKN250
     FM300300 27009KT P6SM SCT050 SCT250
     FM301300 31009KT P6SM FEW100 BKN200=



000
FTUS44 KLIX 291740
TAFGPT
TAF
KGPT 291740Z 2918/3018 VRB06KT P6SM FEW040
      TEMPO 2920/2924 18009G15KT 2SM TSRA BKN030CB
     FM300200 VRB04KT P6SM SCT050 BKN250
     FM300900 31009KT P6SM SCT150=



000
FTUS44 KLIX 291740
TAFMSY
TAF
KMSY 291740Z 2918/3018 02007G14KT P6SM FEW030 BKN250
      TEMPO 2921/2924 2SM TSRA BKN030CB
     FM300000 VRB06KT P6SM SCT060 BKN250
     FM300300 27009KT P6SM SCT050 SCT250
     FM301300 31009KT P6SM FEW100 BKN200=



000
FTUS44 KLIX 291740
TAFMCB
TAF
KMCB 291740Z 2918/3018 04008KT P6SM SKC
     FM300100 VRB03KT P6SM FEW050 SCT250
     FM301500 35006KT P6SM SCT050=



000
FTUS44 KLIX 291122
TAFGPT
TAF
KGPT 291122Z 2912/3012 30005KT P6SM SCT035 SCT120 BKN250
     FM291700 22006KT P6SM SCT040 SCT100 BKN250
      TEMPO 2918/2922 2SM TSRA BKN030CB
     FM300100 VRB04KT P6SM SCT050 BKN250=



000
FTUS44 KLIX 291122
TAFNEW
TAF
KNEW 291122Z 2912/3012 29010KT P6SM SCT100 BKN250
     FM291400 32009KT P6SM SCT040 SCT100 BKN250 PROB30 2921/2924 2SM
      TSRA BKN030CB
     FM300000 25007KT P6SM SCT050 BKN250=



000
FTUS44 KLIX 291122
TAFNEW
TAF
KNEW 291122Z 2912/3012 29010KT P6SM SCT100 BKN250
     FM291400 32009KT P6SM SCT040 SCT100 BKN250 PROB30 2921/2924 2SM
      TSRA BKN030CB
     FM300000 25007KT P6SM SCT050 BKN250=



000
FTUS44 KLIX 291122
TAFMSY
TAF
KMSY 291122Z 2912/3012 28005KT P6SM FEW020 SCT100 BKN250
     FM291400 VRB05KT P6SM SCT040 SCT100 BKN250 PROB30 2921/2924 2SM
      TSRA BKN030CB=



000
FTUS44 KLIX 291122
TAFBTR
TAF
KBTR 291122Z 2912/3012 23004KT P6SM SKC
     FM291500 31005KT P6SM SCT045
     FM300100 VRB03KT P6SM SCT050 BKN250=



000
FTUS44 KLIX 291122
TAFMCB
TAF
KMCB 291122Z 2912/3012 VRB03KT P6SM SKC
     FM291500 33005KT P6SM SCT045
     FM300100 VRB03KT P6SM SCT050 BKN250=



000
FTUS44 KLIX 291122
TAFNEW
TAF
KNEW 291122Z 2912/3012 29010KT P6SM SCT100 BKN250
     FM291400 32009KT P6SM SCT040 SCT100 BKN250 PROB30 2921/2924 2SM
      TSRA BKN030CB
     FM300000 25007KT P6SM SCT050 BKN250=



000
FTUS44 KLIX 291122
TAFMCB
TAF
KMCB 291122Z 2912/3012 VRB03KT P6SM SKC
     FM291500 33005KT P6SM SCT045
     FM300100 VRB03KT P6SM SCT050 BKN250=



000
FTUS44 KLIX 291122
TAFGPT
TAF
KGPT 291122Z 2912/3012 30005KT P6SM SCT035 SCT120 BKN250
     FM291700 22006KT P6SM SCT040 SCT100 BKN250
      TEMPO 2918/2922 2SM TSRA BKN030CB
     FM300100 VRB04KT P6SM SCT050 BKN250=



000
FTUS44 KLIX 291122
TAFNEW
TAF
KNEW 291122Z 2912/3012 29010KT P6SM SCT100 BKN250
     FM291400 32009KT P6SM SCT040 SCT100 BKN250 PROB30 2921/2924 2SM
      TSRA BKN030CB
     FM300000 25007KT P6SM SCT050 BKN250=



000
FTUS44 KLIX 291122
TAFMSY
TAF
KMSY 291122Z 2912/3012 28005KT P6SM FEW020 SCT100 BKN250
     FM291400 VRB05KT P6SM SCT040 SCT100 BKN250 PROB30 2921/2924 2SM
      TSRA BKN030CB=



000
FTUS44 KLIX 291122
TAFBTR
TAF
KBTR 291122Z 2912/3012 23004KT P6SM SKC
     FM291500 31005KT P6SM SCT045
     FM300100 VRB03KT P6SM SCT050 BKN250=



000
FTUS44 KLIX 290529
TAFBTR
TAF
KBTR 290529Z 2906/3006 23004KT P6SM SKC
     FM291500 31004KT P6SM SCT045=



000
FTUS44 KLIX 290529
TAFNEW
TAF
KNEW 290529Z 2906/3006 24006KT P6SM SKC
     FM291500 32007KT P6SM SCT045=



000
FTUS44 KLIX 290529
TAFMSY
TAF
KMSY 290529Z 2906/3006 23006KT P6SM FEW250
     FM291400 30005KT P6SM SCT040=



000
FTUS44 KLIX 290529
TAFMCB
TAF
KMCB 290529Z 2906/3006 VRB03KT P6SM SKC
     FM291500 29004KT P6SM SCT045=



000
FTUS44 KLIX 290529
TAFGPT
TAF
KGPT 290529Z 2906/3006 VRB03KT P6SM SCT250
     FM291300 31006KT P6SM FEW035 SCT250
     FM291800 24006KT P6SM SCT040=



000
FTUS44 KLIX 290529
TAFBTR
TAF
KBTR 290529Z 2906/3006 23004KT P6SM SKC
     FM291500 31004KT P6SM SCT045=



000
FTUS44 KLIX 290529
TAFMSY
TAF
KMSY 290529Z 2906/3006 23006KT P6SM FEW250
     FM291400 30005KT P6SM SCT040=



000
FTUS44 KLIX 290529
TAFGPT
TAF
KGPT 290529Z 2906/3006 VRB03KT P6SM SCT250
     FM291300 31006KT P6SM FEW035 SCT250
     FM291800 24006KT P6SM SCT040=



000
FTUS44 KLIX 290529
TAFNEW
TAF
KNEW 290529Z 2906/3006 24006KT P6SM SKC
     FM291500 32007KT P6SM SCT045=



000
FTUS44 KLIX 282320
TAFNEW
TAF
KNEW 282320Z 2900/2924 20005KT P6SM SCT050
     FM291600 32007KT P6SM SCT050=



000
FTUS44 KLIX 282320
TAFMCB
TAF
KMCB 282320Z 2900/2924 00000KT P6SM SCT050
     FM291200 29004KT P6SM BKN050=



000
FTUS44 KLIX 282320
TAFMSY
TAF
KMSY 282320Z 2900/2924 20005KT P6SM SCT050
     FM290800 27005KT P6SM SCT050
     FM291500 33006KT P6SM SCT050
     FM292300 26005KT P6SM SCT050=



000
FTUS44 KLIX 282320
TAFMCB
TAF
KMCB 282320Z 2900/2924 00000KT P6SM SCT050
     FM291200 29004KT P6SM BKN050=



000
FTUS44 KLIX 282320
TAFGPT
TAF
KGPT 282320Z 2900/2924 23006KT P6SM SCT050
     FM291000 29005KT P6SM SCT050
     FM292100 24006KT P6SM BKN050=



000
FTUS44 KLIX 282320
TAFMSY
TAF
KMSY 282320Z 2900/2924 20005KT P6SM SCT050
     FM290800 27005KT P6SM SCT050
     FM291500 33006KT P6SM SCT050
     FM292300 26005KT P6SM SCT050=



000
FTUS44 KLIX 282320
TAFBTR
TAF
KBTR 282320Z 2900/2924 19004KT P6SM SCT050
     FM291300 31004KT P6SM SCT050=



000
FTUS44 KLIX 282320
TAFGPT
TAF
KGPT 282320Z 2900/2924 23006KT P6SM SCT050
     FM291000 29005KT P6SM SCT050
     FM292100 24006KT P6SM BKN050=



000
FTUS44 KLIX 282320
TAFNEW
TAF
KNEW 282320Z 2900/2924 20005KT P6SM SCT050
     FM291600 32007KT P6SM SCT050=



000
FTUS44 KLIX 282320
TAFBTR
TAF
KBTR 282320Z 2900/2924 19004KT P6SM SCT050
     FM291300 31004KT P6SM SCT050=



000
FTUS44 KLIX 281914 AAA
TAFMCB
TAF AMD
KMCB 281914Z 2819/2918 24005KT P6SM SCT060 SCT100
      TEMPO 2820/2822 5SM -SHRA BKN040
     FM290100 VRB03KT P6SM SCT250
     FM291530 35007KT P6SM SCT060=



000
FTUS44 KLIX 281736
TAFMCB
TAF
KMCB 281736Z 2818/2918 24005KT P6SM SCT045
     FM290100 VRB03KT P6SM SCT250
     FM291530 35007KT P6SM SCT060=



000
FTUS44 KLIX 281736
TAFBTR
TAF
KBTR 281736Z 2818/2918 19005KT P6SM SCT045 BKN060
     FM290100 22004KT P6SM SCT250=



000
FTUS44 KLIX 281736
TAFGPT
TAF
KGPT 281736Z 2818/2918 25006KT P6SM SCT050
     FM281930 20009KT P6SM SKC
     FM290500 24005KT P6SM FEW250
     FM290900 28007KT P6SM FEW250=



000
FTUS44 KLIX 281736
TAFMSY
TAF
KMSY 281736Z 2818/2918 VRB03KT P6SM FEW040 FEW250
     FM282130 17007KT P6SM SCT050
     FM290200 21007KT P6SM FEW040=



000
FTUS44 KLIX 281736
TAFNEW
TAF
KNEW 281736Z 2818/2918 34006KT P6SM FEW040
     FM282100 16009KT P6SM SCT050
     FM290200 20007KT P6SM FEW060=



000
FTUS44 KLIX 281736
TAFNEW
TAF
KNEW 281736Z 2818/2918 34006KT P6SM FEW040
     FM282100 16009KT P6SM SCT050
     FM290200 20007KT P6SM FEW060=



000
FTUS44 KLIX 281736
TAFGPT
TAF
KGPT 281736Z 2818/2918 25006KT P6SM SCT050
     FM281930 20009KT P6SM SKC
     FM290500 24005KT P6SM FEW250
     FM290900 28007KT P6SM FEW250=



000
FTUS44 KLIX 281736
TAFMSY
TAF
KMSY 281736Z 2818/2918 VRB03KT P6SM FEW040 FEW250
     FM282130 17007KT P6SM SCT050
     FM290200 21007KT P6SM FEW040=



000
FTUS44 KLIX 281736
TAFBTR
TAF
KBTR 281736Z 2818/2918 19005KT P6SM SCT045 BKN060
     FM290100 22004KT P6SM SCT250=



000
FTUS44 KLIX 281736
TAFNEW
TAF
KNEW 281736Z 2818/2918 34006KT P6SM FEW040
     FM282100 16009KT P6SM SCT050
     FM290200 20007KT P6SM FEW060=



000
FTUS44 KLIX 281736
TAFMCB
TAF
KMCB 281736Z 2818/2918 24005KT P6SM SCT045
     FM290100 VRB03KT P6SM SCT250
     FM291530 35007KT P6SM SCT060=



000
FTUS44 KLIX 281736
TAFNEW
TAF
KNEW 281736Z 2818/2918 34006KT P6SM FEW040
     FM282100 16009KT P6SM SCT050
     FM290200 20007KT P6SM FEW060=



000
FTUS44 KLIX 281120
TAFMSY
TAF
KMSY 281120Z 2812/2912 VRB03KT P6SM FEW020
     FM281430 36005KT P6SM FEW035
     FM281900 21006KT P6SM SCT040=



000
FTUS44 KLIX 281120
TAFNEW
TAF
KNEW 281120Z 2812/2912 29004KT P6SM SKC
     FM281430 31006KT P6SM FEW035
     FM282000 21006KT P6SM SCT040=



000
FTUS44 KLIX 281120
TAFNEW
TAF
KNEW 281120Z 2812/2912 29004KT P6SM SKC
     FM281430 31006KT P6SM FEW035
     FM282000 21006KT P6SM SCT040=



000
FTUS44 KLIX 281120
TAFBTR
TAF
KBTR 281120Z 2812/2912 VRB03KT P6SM SKC
     FM281530 23005KT P6SM SCT045
     FM290100 22004KT P6SM SCT250=



000
FTUS44 KLIX 281120
TAFMCB
TAF
KMCB 281120Z 2812/2912 VRB03KT P6SM SKC
      TEMPO 2812/2813 5SM BR
     FM281530 24005KT P6SM SCT045
     FM290100 VRB03KT P6SM SCT250=



000
FTUS44 KLIX 281120
TAFGPT
TAF
KGPT 281120Z 2812/2912 32004KT P6SM FEW035
     FM281800 20006KT P6SM SCT040
     FM290100 VRB03KT P6SM SCT250=



    US Dept of Commerce
    National Oceanic and Atmospheric Administration
    National Weather Service
    1325 East West Highway
    Silver Spring, MD 20910
    Page Author: NWS Internet Services Team
Disclaimer
Information Quality
Credits
Glossary
Privacy Policy
Freedom of Information Act (FOIA)
About Us
Career Opportunities